GCLP Airport Information

Runway Information
Runway 03L Length 10171 ft width 148 ft
Elevation 78 ft Threshold 0 ft Heading 22
Runway 21R Length 10171 ft Width 148 ft
Elevation 33 ft Threshold 0 ft Heading 202
Runway 03R Length 10171 ft width 148 ft
Elevation 69 ft Threshold 0 ft Heading 22
Runway 21L Length 10171 ft Width 148 ft
Elevation 27 ft Threshold 0 ft Heading 202
Airport Frequencies
Type APP Name APP Frequency 120.9 MHZ
Type ATIS Name ATIS Frequency 118.6 MHZ
Type GND Name GND Frequency 121.7 MHZ
Type TWR Name TWR Frequency 118.3 MHZ
Airport Navaids
Type VOR-DME Name Gran Canaria Frequency 112900 KHZ
Type VOR-DME Name Gran Canaria Frequency 115000 KHZ
Type TACAN Name Gran Canaria Frequency 115600 KHZ
Type NDB Name Gran Canaria Frequency 365 KHZ
Airport Weather Information & NOTAM
ADDS - METARS form results

(0719 UTC 22 November 2019)
Data provider http://aviationweather.gov/metar/data/
 
METAR text: GCLP 220700Z 33003KT 290V030 9999 SCT035 18/14 Q1015 NOSIG
Conditions at: GCLP (LAS PALMAS/GANDO, ES) observed 0700 UTC 22 November 2019
Temperature: 18.0°C (64°F)
Dewpoint: 14.0°C (57°F) [RH = 77%]
Pressure (altimeter): 29.97 inches Hg (1015.0 mb)
Winds: from the NNW (330 degrees) at 3 MPH (3 knots; 1.5 m/s)
Visibility: 6 or more miles (10+ km)
Ceiling: at least 12,000 feet AGL
Clouds: scattered clouds at 3500 feet AGL
Weather: no significant weather observed at this time

METAR text: GCLP 220630Z 33003KT 9999 FEW045 17/13 Q1015 NOSIG
Conditions at: GCLP (LAS PALMAS/GANDO, ES) observed 0630 UTC 22 November 2019
Temperature: 17.0°C (63°F)
Dewpoint: 13.0°C (55°F) [RH = 77%]
Pressure (altimeter): 29.97 inches Hg (1015.0 mb)
Winds: from the NNW (330 degrees) at 3 MPH (3 knots; 1.5 m/s)
Visibility: 6 or more miles (10+ km)
Ceiling: at least 12,000 feet AGL
Clouds: few clouds at 4500 feet AGL
Weather: no significant weather observed at this time

Forecast for: GCLP (LAS PALMAS/GANDO, ES)
Text: TAF GCLP 220200Z 2203/2303 28006KT 9999 BKN030 TX24/2214Z TN17/2207Z
Forecast period: 0300 UTC 22 November 2019 to 0300 UTC 23 November 2019
Forecast type: FROM: standard forecast or significant change
Winds: from the W (280 degrees) at 7 MPH (6 knots; 3.1 m/s)
Visibility: 6 or more miles 10+ km)
Ceiling: 3000 feet AGL
Clouds: broken clouds at 3000 feet AGL
Weather: no significant weather forecast for this period
Text: PROB40
Forecast period: 0900 to 1700 UTC 22 November 2019
Forecast type: TEMPORARY: The following changes expected for less than half the time period
Winds: from the N (360 degrees) at 14 MPH (12 knots; 6.2 m/s)
Visibility: missing
Ceiling: unknown
Clouds: missing
Weather: no significant weather forecast for this period